sensor_id;sensor_type;location;lat;lon;timestamp;P1;durP1;ratioP1;P2;durP2;ratioP2
58643;SDS011;44411;49.994;8.660;2023-03-14T00:02:10;3.15;;;1.77;;
58643;SDS011;44411;49.994;8.660;2023-03-14T00:04:36;4.20;;;1.50;;
58643;SDS011;44411;49.994;8.660;2023-03-14T00:07:02;3.42;;;1.50;;
58643;SDS011;44411;49.994;8.660;2023-03-14T00:09:28;3.65;;;1.60;;
58643;SDS011;44411;49.994;8.660;2023-03-14T00:11:54;3.28;;;1.50;;
58643;SDS011;44411;49.994;8.660;2023-03-14T00:14:20;2.88;;;1.45;;
58643;SDS011;44411;49.994;8.660;2023-03-14T00:16:46;4.38;;;1.60;;
58643;SDS011;44411;49.994;8.660;2023-03-14T00:19:11;4.13;;;1.60;;
58643;SDS011;44411;49.994;8.660;2023-03-14T00:21:37;3.60;;;1.60;;
58643;SDS011;44411;49.994;8.660;2023-03-14T00:24:02;3.20;;;1.20;;
58643;SDS011;44411;49.994;8.660;2023-03-14T00:26:30;3.78;;;1.50;;
58643;SDS011;44411;49.994;8.660;2023-03-14T00:28:56;4.43;;;1.27;;
58643;SDS011;44411;49.994;8.660;2023-03-14T00:31:22;2.60;;;1.25;;
58643;SDS011;44411;49.994;8.660;2023-03-14T00:33:47;3.45;;;2.00;;
58643;SDS011;44411;49.994;8.660;2023-03-14T00:36:13;4.70;;;1.85;;
58643;SDS011;44411;49.994;8.660;2023-03-14T00:38:41;4.80;;;1.65;;
58643;SDS011;44411;49.994;8.660;2023-03-14T00:41:09;4.60;;;1.50;;
58643;SDS011;44411;49.994;8.660;2023-03-14T00:43:36;3.83;;;1.58;;
58643;SDS011;44411;49.994;8.660;2023-03-14T00:46:02;3.05;;;1.30;;
58643;SDS011;44411;49.994;8.660;2023-03-14T00:48:28;3.17;;;1.13;;
58643;SDS011;44411;49.994;8.660;2023-03-14T00:50:53;3.75;;;1.88;;
58643;SDS011;44411;49.994;8.660;2023-03-14T00:53:19;4.10;;;1.30;;
58643;SDS011;44411;49.994;8.660;2023-03-14T00:55:44;4.18;;;1.35;;
58643;SDS011;44411;49.994;8.660;2023-03-14T00:58:10;4.25;;;1.40;;
58643;SDS011;44411;49.994;8.660;2023-03-14T01:00:37;2.75;;;1.20;;
58643;SDS011;44411;49.994;8.660;2023-03-14T01:03:03;2.17;;;1.17;;
58643;SDS011;44411;49.994;8.660;2023-03-14T01:05:29;3.17;;;1.50;;
58643;SDS011;44411;49.994;8.660;2023-03-14T01:07:55;7.90;;;1.65;;
58643;SDS011;44411;49.994;8.660;2023-03-14T01:10:20;4.55;;;1.88;;
58643;SDS011;44411;49.994;8.660;2023-03-14T01:12:46;5.35;;;2.28;;
58643;SDS011;44411;49.994;8.660;2023-03-14T01:15:11;4.03;;;1.52;;
58643;SDS011;44411;49.994;8.660;2023-03-14T01:17:37;5.10;;;1.30;;
58643;SDS011;44411;49.994;8.660;2023-03-14T01:20:06;4.45;;;1.50;;
58643;SDS011;44411;49.994;8.660;2023-03-14T01:22:36;5.22;;;1.65;;
58643;SDS011;44411;49.994;8.660;2023-03-14T01:25:04;4.35;;;1.58;;
58643;SDS011;44411;49.994;8.660;2023-03-14T01:27:34;5.95;;;1.40;;
58643;SDS011;44411;49.994;8.660;2023-03-14T01:29:59;4.15;;;1.70;;
58643;SDS011;44411;49.994;8.660;2023-03-14T01:32:25;4.97;;;1.75;;
58643;SDS011;44411;49.994;8.660;2023-03-14T01:34:50;4.60;;;1.42;;
58643;SDS011;44411;49.994;8.660;2023-03-14T01:37:16;4.10;;;1.38;;
58643;SDS011;44411;49.994;8.660;2023-03-14T01:39:41;4.03;;;1.95;;
58643;SDS011;44411;49.994;8.660;2023-03-14T01:42:06;2.60;;;1.40;;
58643;SDS011;44411;49.994;8.660;2023-03-14T01:47:20;7.20;;;1.77;;
58643;SDS011;44411;49.994;8.660;2023-03-14T01:49:46;4.88;;;1.70;;
58643;SDS011;44411;49.994;8.660;2023-03-14T01:54:47;7.53;;;1.65;;
58643;SDS011;44411;49.994;8.660;2023-03-14T01:57:33;5.43;;;1.40;;
58643;SDS011;44411;49.994;8.660;2023-03-14T02:00:09;8.47;;;1.60;;
58643;SDS011;44411;49.994;8.660;2023-03-14T02:02:39;5.55;;;2.17;;
58643;SDS011;44411;49.994;8.660;2023-03-14T02:05:07;3.45;;;1.33;;
58643;SDS011;44411;49.994;8.660;2023-03-14T02:07:35;5.93;;;1.98;;
58643;SDS011;44411;49.994;8.660;2023-03-14T02:10:06;4.35;;;1.50;;
58643;SDS011;44411;49.994;8.660;2023-03-14T02:12:33;5.30;;;1.40;;
58643;SDS011;44411;49.994;8.660;2023-03-14T02:14:59;6.22;;;1.60;;
58643;SDS011;44411;49.994;8.660;2023-03-14T02:17:25;6.75;;;1.52;;
58643;SDS011;44411;49.994;8.660;2023-03-14T02:22:24;4.72;;;1.67;;
58643;SDS011;44411;49.994;8.660;2023-03-14T02:27:47;6.75;;;1.60;;
58643;SDS011;44411;49.994;8.660;2023-03-14T02:30:16;4.72;;;1.45;;
58643;SDS011;44411;49.994;8.660;2023-03-14T02:35:12;2.55;;;1.20;;
58643;SDS011;44411;49.994;8.660;2023-03-14T02:40:41;6.70;;;1.45;;
58643;SDS011;44411;49.994;8.660;2023-03-14T02:43:06;4.07;;;1.42;;
58643;SDS011;44411;49.994;8.660;2023-03-14T02:45:33;5.13;;;1.77;;
58643;SDS011;44411;49.994;8.660;2023-03-14T02:48:00;6.65;;;1.92;;
58643;SDS011;44411;49.994;8.660;2023-03-14T06:01:28;4.13;;;1.00;;
58643;SDS011;44411;49.994;8.660;2023-03-14T06:03:54;5.28;;;1.13;;
58643;SDS011;44411;49.994;8.660;2023-03-14T06:06:19;4.80;;;0.95;;
58643;SDS011;44411;49.994;8.660;2023-03-14T06:08:45;4.07;;;1.27;;
58643;SDS011;44411;49.994;8.660;2023-03-14T06:11:10;5.45;;;1.05;;
58643;SDS011;44411;49.994;8.660;2023-03-14T06:13:36;2.35;;;0.77;;
58643;SDS011;44411;49.994;8.660;2023-03-14T06:16:01;3.65;;;0.90;;
58643;SDS011;44411;49.994;8.660;2023-03-14T06:18:26;8.32;;;1.60;;
58643;SDS011;44411;49.994;8.660;2023-03-14T06:20:55;3.80;;;0.95;;
58643;SDS011;44411;49.994;8.660;2023-03-14T06:23:21;6.97;;;1.30;;
58643;SDS011;44411;49.994;8.660;2023-03-14T06:25:47;4.43;;;1.48;;
58643;SDS011;44411;49.994;8.660;2023-03-14T06:28:13;4.68;;;1.00;;
58643;SDS011;44411;49.994;8.660;2023-03-14T06:30:38;2.35;;;1.05;;
58643;SDS011;44411;49.994;8.660;2023-03-14T06:33:04;3.65;;;0.80;;
58643;SDS011;44411;49.994;8.660;2023-03-14T06:35:29;3.38;;;1.40;;
58643;SDS011;44411;49.994;8.660;2023-03-14T06:37:54;4.47;;;1.13;;
58643;SDS011;44411;49.994;8.660;2023-03-14T06:40:20;7.07;;;1.20;;
58643;SDS011;44411;49.994;8.660;2023-03-14T06:42:46;4.65;;;1.27;;
58643;SDS011;44411;49.994;8.660;2023-03-14T06:45:11;3.67;;;0.90;;
58643;SDS011;44411;49.994;8.660;2023-03-14T06:47:37;4.47;;;1.10;;
58643;SDS011;44411;49.994;8.660;2023-03-14T06:50:06;3.28;;;0.90;;
58643;SDS011;44411;49.994;8.660;2023-03-14T06:52:32;3.55;;;0.90;;
58643;SDS011;44411;49.994;8.660;2023-03-14T06:54:58;3.35;;;0.98;;
58643;SDS011;44411;49.994;8.660;2023-03-14T06:57:23;5.22;;;0.98;;
58643;SDS011;44411;49.994;8.660;2023-03-14T06:59:48;5.00;;;0.90;;
58643;SDS011;44411;49.994;8.660;2023-03-14T07:02:14;3.53;;;1.10;;
58643;SDS011;44411;49.994;8.660;2023-03-14T07:04:39;5.72;;;0.90;;
58643;SDS011;44411;49.994;8.660;2023-03-14T07:07:05;1.88;;;0.60;;
58643;SDS011;44411;49.994;8.660;2023-03-14T07:09:30;3.80;;;0.70;;
58643;SDS011;44411;49.994;8.660;2023-03-14T07:11:56;3.03;;;0.90;;
58643;SDS011;44411;49.994;8.660;2023-03-14T07:14:21;3.22;;;0.98;;
58643;SDS011;44411;49.994;8.660;2023-03-14T07:16:47;3.70;;;1.27;;
58643;SDS011;44411;49.994;8.660;2023-03-14T07:19:12;6.63;;;1.10;;
58643;SDS011;44411;49.994;8.660;2023-03-14T07:21:37;6.18;;;1.30;;
58643;SDS011;44411;49.994;8.660;2023-03-14T07:24:03;3.28;;;0.88;;
58643;SDS011;44411;49.994;8.660;2023-03-14T07:26:28;3.38;;;0.90;;
58643;SDS011;44411;49.994;8.660;2023-03-14T07:28:53;2.83;;;1.02;;
58643;SDS011;44411;49.994;8.660;2023-03-14T07:31:19;1.67;;;0.63;;
58643;SDS011;44411;49.994;8.660;2023-03-14T07:33:44;4.32;;;0.80;;
58643;SDS011;44411;49.994;8.660;2023-03-14T07:36:10;2.90;;;0.60;;
58643;SDS011;44411;49.994;8.660;2023-03-14T07:38:35;4.07;;;0.80;;
58643;SDS011;44411;49.994;8.660;2023-03-14T07:41:01;4.25;;;0.90;;
58643;SDS011;44411;49.994;8.660;2023-03-14T07:43:28;4.47;;;1.10;;
58643;SDS011;44411;49.994;8.660;2023-03-14T07:45:54;4.47;;;0.85;;
58643;SDS011;44411;49.994;8.660;2023-03-14T07:48:19;5.70;;;0.93;;
58643;SDS011;44411;49.994;8.660;2023-03-14T07:50:49;2.70;;;0.60;;
58643;SDS011;44411;49.994;8.660;2023-03-14T07:53:16;3.95;;;0.80;;
58643;SDS011;44411;49.994;8.660;2023-03-14T07:55:41;2.97;;;0.82;;
58643;SDS011;44411;49.994;8.660;2023-03-14T07:58:07;3.65;;;0.90;;
58643;SDS011;44411;49.994;8.660;2023-03-14T08:00:32;4.63;;;1.00;;
58643;SDS011;44411;49.994;8.660;2023-03-14T08:02:57;3.55;;;1.00;;
58643;SDS011;44411;49.994;8.660;2023-03-14T08:05:23;3.45;;;0.90;;
58643;SDS011;44411;49.994;8.660;2023-03-14T08:07:48;5.03;;;1.30;;
58643;SDS011;44411;49.994;8.660;2023-03-14T08:10:13;3.47;;;1.33;;
58643;SDS011;44411;49.994;8.660;2023-03-14T08:12:45;4.07;;;1.08;;
58643;SDS011;44411;49.994;8.660;2023-03-14T08:15:11;3.17;;;0.80;;
58643;SDS011;44411;49.994;8.660;2023-03-14T08:17:36;6.80;;;0.80;;
58643;SDS011;44411;49.994;8.660;2023-03-14T08:20:02;3.47;;;0.80;;
58643;SDS011;44411;49.994;8.660;2023-03-14T08:22:31;3.35;;;0.82;;
58643;SDS011;44411;49.994;8.660;2023-03-14T08:24:56;2.17;;;0.60;;
58643;SDS011;44411;49.994;8.660;2023-03-14T08:27:22;5.18;;;1.05;;
58643;SDS011;44411;49.994;8.660;2023-03-14T08:29:47;3.75;;;0.80;;
58643;SDS011;44411;49.994;8.660;2023-03-14T08:32:12;1.92;;;0.70;;
58643;SDS011;44411;49.994;8.660;2023-03-14T08:34:38;4.30;;;0.88;;
58643;SDS011;44411;49.994;8.660;2023-03-14T08:37:03;2.30;;;0.82;;
58643;SDS011;44411;49.994;8.660;2023-03-14T08:39:30;1.92;;;0.88;;
58643;SDS011;44411;49.994;8.660;2023-03-14T08:41:55;1.92;;;0.65;;
58643;SDS011;44411;49.994;8.660;2023-03-14T08:44:21;3.20;;;0.80;;
58643;SDS011;44411;49.994;8.660;2023-03-14T08:46:46;2.95;;;0.80;;
58643;SDS011;44411;49.994;8.660;2023-03-14T08:49:11;4.22;;;0.90;;
58643;SDS011;44411;49.994;8.660;2023-03-14T08:51:37;3.35;;;1.10;;
58643;SDS011;44411;49.994;8.660;2023-03-14T08:54:02;3.88;;;0.80;;
58643;SDS011;44411;49.994;8.660;2023-03-14T08:56:27;2.22;;;1.23;;
58643;SDS011;44411;49.994;8.660;2023-03-14T08:58:53;3.33;;;1.00;;
58643;SDS011;44411;49.994;8.660;2023-03-14T09:01:18;4.32;;;0.82;;
58643;SDS011;44411;49.994;8.660;2023-03-14T09:03:44;4.65;;;0.95;;
58643;SDS011;44411;49.994;8.660;2023-03-14T09:06:11;2.45;;;0.60;;
58643;SDS011;44411;49.994;8.660;2023-03-14T09:08:37;5.50;;;0.60;;
58643;SDS011;44411;49.994;8.660;2023-03-14T09:11:03;3.58;;;0.70;;
58643;SDS011;44411;49.994;8.660;2023-03-14T09:13:28;1.33;;;0.57;;
58643;SDS011;44411;49.994;8.660;2023-03-14T09:15:54;1.90;;;0.68;;
58643;SDS011;44411;49.994;8.660;2023-03-14T09:18:20;1.88;;;0.52;;
58643;SDS011;44411;49.994;8.660;2023-03-14T09:20:46;9.00;;;0.80;;
58643;SDS011;44411;49.994;8.660;2023-03-14T09:23:11;1.80;;;0.60;;
58643;SDS011;44411;49.994;8.660;2023-03-14T09:25:37;2.53;;;0.60;;
58643;SDS011;44411;49.994;8.660;2023-03-14T09:28:03;1.00;;;0.55;;
58643;SDS011;44411;49.994;8.660;2023-03-14T09:30:28;2.13;;;0.93;;
58643;SDS011;44411;49.994;8.660;2023-03-14T09:32:54;1.80;;;0.47;;
58643;SDS011;44411;49.994;8.660;2023-03-14T09:35:19;1.88;;;0.60;;
58643;SDS011;44411;49.994;8.660;2023-03-14T09:37:45;1.25;;;0.63;;
58643;SDS011;44411;49.994;8.660;2023-03-14T09:40:12;1.10;;;0.45;;
58643;SDS011;44411;49.994;8.660;2023-03-14T09:42:39;2.00;;;0.50;;
58643;SDS011;44411;49.994;8.660;2023-03-14T09:45:06;2.13;;;0.60;;
58643;SDS011;44411;49.994;8.660;2023-03-14T09:47:39;0.88;;;0.50;;
58643;SDS011;44411;49.994;8.660;2023-03-14T09:50:06;1.77;;;0.60;;
58643;SDS011;44411;49.994;8.660;2023-03-14T09:52:38;2.45;;;0.77;;
58643;SDS011;44411;49.994;8.660;2023-03-14T09:55:10;3.17;;;0.73;;
58643;SDS011;44411;49.994;8.660;2023-03-14T09:57:42;1.85;;;0.70;;
58643;SDS011;44411;49.994;8.660;2023-03-14T10:00:20;1.83;;;0.80;;
58643;SDS011;44411;49.994;8.660;2023-03-14T10:02:55;0.65;;;0.50;;
58643;SDS011;44411;49.994;8.660;2023-03-14T10:05:25;2.35;;;0.65;;
58643;SDS011;44411;49.994;8.660;2023-03-14T10:07:51;2.25;;;0.70;;
58643;SDS011;44411;49.994;8.660;2023-03-14T10:10:18;2.63;;;0.73;;
58643;SDS011;44411;49.994;8.660;2023-03-14T10:12:46;2.05;;;0.70;;
58643;SDS011;44411;49.994;8.660;2023-03-14T10:15:22;2.70;;;0.70;;
58643;SDS011;44411;49.994;8.660;2023-03-14T10:17:50;1.02;;;0.60;;
58643;SDS011;44411;49.994;8.660;2023-03-14T10:20:25;3.10;;;0.73;;
58643;SDS011;44411;49.994;8.660;2023-03-14T10:23:02;3.80;;;0.80;;
58643;SDS011;44411;49.994;8.660;2023-03-14T10:25:31;2.20;;;0.68;;
58643;SDS011;44411;49.994;8.660;2023-03-14T10:27:58;1.92;;;0.75;;
58643;SDS011;44411;49.994;8.660;2023-03-14T10:30:38;2.47;;;0.68;;
58643;SDS011;44411;49.994;8.660;2023-03-14T10:35:43;1.15;;;0.55;;
58643;SDS011;44411;49.994;8.660;2023-03-14T10:38:16;2.17;;;0.65;;
58643;SDS011;44411;49.994;8.660;2023-03-14T10:40:46;1.30;;;0.50;;
58643;SDS011;44411;49.994;8.660;2023-03-14T10:43:19;0.60;;;0.60;;
58643;SDS011;44411;49.994;8.660;2023-03-14T10:48:44;1.98;;;0.70;;
58643;SDS011;44411;49.994;8.660;2023-03-14T10:56:32;2.08;;;0.70;;
58643;SDS011;44411;49.994;8.660;2023-03-14T10:59:00;1.05;;;0.70;;
58643;SDS011;44411;49.994;8.660;2023-03-14T11:04:23;1.30;;;1.03;;
58643;SDS011;44411;49.994;8.660;2023-03-14T11:07:05;1.52;;;0.73;;
58643;SDS011;44411;49.994;8.660;2023-03-14T11:09:43;0.60;;;0.50;;
58643;SDS011;44411;49.994;8.660;2023-03-14T11:14:48;3.30;;;0.90;;
58643;SDS011;44411;49.994;8.660;2023-03-14T11:17:30;0.50;;;0.50;;
58643;SDS011;44411;49.994;8.660;2023-03-14T11:23:14;0.60;;;0.55;;
58643;SDS011;44411;49.994;8.660;2023-03-14T11:28:22;1.15;;;0.70;;
58643;SDS011;44411;49.994;8.660;2023-03-14T11:36:31;2.97;;;0.70;;
58643;SDS011;44411;49.994;8.660;2023-03-14T11:39:03;0.93;;;0.68;;
58643;SDS011;44411;49.994;8.660;2023-03-14T11:41:41;1.17;;;0.57;;
58643;SDS011;44411;49.994;8.660;2023-03-14T11:44:16;0.93;;;0.70;;
58643;SDS011;44411;49.994;8.660;2023-03-14T11:49:45;0.75;;;0.50;;
58643;SDS011;44411;49.994;8.660;2023-03-14T12:10:51;1.58;;;0.85;;
58643;SDS011;44411;49.994;8.660;2023-03-14T12:13:19;1.47;;;0.80;;
58643;SDS011;44411;49.994;8.660;2023-03-14T12:15:49;3.00;;;0.80;;
58643;SDS011;44411;49.994;8.660;2023-03-14T12:18:21;1.55;;;0.40;;
58643;SDS011;44411;49.994;8.660;2023-03-14T12:21:04;1.10;;;0.50;;
58643;SDS011;44411;49.994;8.660;2023-03-14T12:26:22;1.00;;;0.63;;
58643;SDS011;44411;49.994;8.660;2023-03-14T12:42:02;1.48;;;0.50;;
58643;SDS011;44411;49.994;8.660;2023-03-14T12:44:46;1.00;;;0.60;;
58643;SDS011;44411;49.994;8.660;2023-03-14T12:49:41;1.20;;;0.40;;
58643;SDS011;44411;49.994;8.660;2023-03-14T12:52:14;0.90;;;0.60;;
58643;SDS011;44411;49.994;8.660;2023-03-14T12:55:04;0.90;;;0.40;;
58643;SDS011;44411;49.994;8.660;2023-03-14T13:00:19;0.57;;;0.40;;
58643;SDS011;44411;49.994;8.660;2023-03-14T13:02:46;0.63;;;0.45;;
58643;SDS011;44411;49.994;8.660;2023-03-14T13:05:23;1.95;;;0.40;;
58643;SDS011;44411;49.994;8.660;2023-03-14T13:13:03;0.90;;;0.50;;
58643;SDS011;44411;49.994;8.660;2023-03-14T13:15:41;1.33;;;0.40;;
58643;SDS011;44411;49.994;8.660;2023-03-14T13:20:44;2.15;;;0.32;;
58643;SDS011;44411;49.994;8.660;2023-03-14T13:23:29;0.50;;;0.40;;
58643;SDS011;44411;49.994;8.660;2023-03-14T13:25:57;0.95;;;0.50;;
58643;SDS011;44411;49.994;8.660;2023-03-14T13:28:24;0.43;;;0.40;;
58643;SDS011;44411;49.994;8.660;2023-03-14T13:30:54;0.55;;;0.45;;
58643;SDS011;44411;49.994;8.660;2023-03-14T13:33:22;0.57;;;0.40;;
58643;SDS011;44411;49.994;8.660;2023-03-14T13:35:53;1.75;;;0.73;;
58643;SDS011;44411;49.994;8.660;2023-03-14T13:38:23;1.70;;;0.80;;
58643;SDS011;44411;49.994;8.660;2023-03-14T13:40:53;1.60;;;0.60;;
58643;SDS011;44411;49.994;8.660;2023-03-14T13:46:00;2.40;;;1.05;;
58643;SDS011;44411;49.994;8.660;2023-03-14T13:48:26;7.70;;;1.95;;
58643;SDS011;44411;49.994;8.660;2023-03-14T13:50:55;0.65;;;0.65;;
58643;SDS011;44411;49.994;8.660;2023-03-14T13:53:24;0.98;;;0.65;;
58643;SDS011;44411;49.994;8.660;2023-03-14T13:55:51;1.42;;;0.50;;
58643;SDS011;44411;49.994;8.660;2023-03-14T13:58:21;1.67;;;0.63;;
58643;SDS011;44411;49.994;8.660;2023-03-14T14:01:34;0.80;;;0.60;;
58643;SDS011;44411;49.994;8.660;2023-03-14T14:03:45;1.30;;;0.60;;
58643;SDS011;44411;49.994;8.660;2023-03-14T14:08:54;1.42;;;0.70;;
58643;SDS011;44411;49.994;8.660;2023-03-14T14:13:59;2.70;;;0.75;;
58643;SDS011;44411;49.994;8.660;2023-03-14T14:16:25;2.33;;;1.00;;
58643;SDS011;44411;49.994;8.660;2023-03-14T14:18:53;1.20;;;0.88;;
58643;SDS011;44411;49.994;8.660;2023-03-14T14:21:25;2.05;;;1.00;;
58643;SDS011;44411;49.994;8.660;2023-03-14T14:23:51;0.82;;;0.52;;
58643;SDS011;44411;49.994;8.660;2023-03-14T14:26:18;0.40;;;0.40;;
58643;SDS011;44411;49.994;8.660;2023-03-14T14:28:44;0.60;;;0.60;;
58643;SDS011;44411;49.994;8.660;2023-03-14T14:33:43;1.75;;;0.80;;
58643;SDS011;44411;49.994;8.660;2023-03-14T14:36:19;1.17;;;0.70;;
58643;SDS011;44411;49.994;8.660;2023-03-14T14:38:56;1.10;;;0.90;;
58643;SDS011;44411;49.994;8.660;2023-03-14T14:41:31;2.25;;;1.00;;
58643;SDS011;44411;49.994;8.660;2023-03-14T14:43:58;1.02;;;0.60;;
58643;SDS011;44411;49.994;8.660;2023-03-14T14:46:26;2.13;;;1.42;;
58643;SDS011;44411;49.994;8.660;2023-03-14T14:48:55;1.30;;;0.88;;
58643;SDS011;44411;49.994;8.660;2023-03-14T14:51:26;2.42;;;1.00;;
58643;SDS011;44411;49.994;8.660;2023-03-14T14:54:03;2.20;;;1.15;;
58643;SDS011;44411;49.994;8.660;2023-03-14T14:56:35;1.00;;;0.70;;
58643;SDS011;44411;49.994;8.660;2023-03-14T14:59:01;1.50;;;0.63;;
58643;SDS011;44411;49.994;8.660;2023-03-14T15:04:03;1.13;;;0.70;;
58643;SDS011;44411;49.994;8.660;2023-03-14T15:06:35;1.20;;;0.52;;
58643;SDS011;44411;49.994;8.660;2023-03-14T15:09:00;0.88;;;0.70;;
58643;SDS011;44411;49.994;8.660;2023-03-14T15:11:26;0.77;;;0.50;;
58643;SDS011;44411;49.994;8.660;2023-03-14T15:13:52;0.85;;;0.50;;
58643;SDS011;44411;49.994;8.660;2023-03-14T15:16:18;1.13;;;0.60;;
58643;SDS011;44411;49.994;8.660;2023-03-14T15:18:48;2.47;;;0.80;;
58643;SDS011;44411;49.994;8.660;2023-03-14T15:21:21;1.45;;;0.90;;
58643;SDS011;44411;49.994;8.660;2023-03-14T15:23:48;2.33;;;0.98;;
58643;SDS011;44411;49.994;8.660;2023-03-14T15:26:19;1.67;;;0.80;;
58643;SDS011;44411;49.994;8.660;2023-03-14T15:28:48;1.40;;;0.93;;
58643;SDS011;44411;49.994;8.660;2023-03-14T15:31:14;1.55;;;0.70;;
58643;SDS011;44411;49.994;8.660;2023-03-14T15:33:42;0.93;;;0.50;;
58643;SDS011;44411;49.994;8.660;2023-03-14T15:38:54;0.93;;;0.60;;
58643;SDS011;44411;49.994;8.660;2023-03-14T15:41:21;1.20;;;0.70;;
58643;SDS011;44411;49.994;8.660;2023-03-14T15:43:47;1.63;;;0.80;;
58643;SDS011;44411;49.994;8.660;2023-03-14T15:46:13;2.85;;;1.60;;
58643;SDS011;44411;49.994;8.660;2023-03-14T15:48:39;2.90;;;0.93;;
58643;SDS011;44411;49.994;8.660;2023-03-14T15:51:05;1.95;;;1.30;;
58643;SDS011;44411;49.994;8.660;2023-03-14T15:53:37;1.80;;;1.27;;
58643;SDS011;44411;49.994;8.660;2023-03-14T15:56:07;2.15;;;1.20;;
58643;SDS011;44411;49.994;8.660;2023-03-14T15:58:35;2.95;;;0.95;;
58643;SDS011;44411;49.994;8.660;2023-03-14T16:01:01;2.50;;;1.20;;
58643;SDS011;44411;49.994;8.660;2023-03-14T16:03:27;3.05;;;1.60;;
58643;SDS011;44411;49.994;8.660;2023-03-14T16:05:54;5.65;;;2.67;;
58643;SDS011;44411;49.994;8.660;2023-03-14T16:08:20;3.90;;;1.92;;
58643;SDS011;44411;49.994;8.660;2023-03-14T16:10:46;3.63;;;1.63;;
58643;SDS011;44411;49.994;8.660;2023-03-14T16:13:11;2.53;;;1.15;;
58643;SDS011;44411;49.994;8.660;2023-03-14T16:15:37;4.55;;;1.70;;
58643;SDS011;44411;49.994;8.660;2023-03-14T16:18:02;2.40;;;1.02;;
58643;SDS011;44411;49.994;8.660;2023-03-14T16:20:28;1.42;;;0.80;;
58643;SDS011;44411;49.994;8.660;2023-03-14T16:22:54;1.92;;;1.10;;
58643;SDS011;44411;49.994;8.660;2023-03-14T16:25:19;3.88;;;1.52;;
58643;SDS011;44411;49.994;8.660;2023-03-14T16:27:45;3.40;;;1.55;;
58643;SDS011;44411;49.994;8.660;2023-03-14T16:30:10;3.63;;;2.63;;
58643;SDS011;44411;49.994;8.660;2023-03-14T16:32:37;2.70;;;1.35;;
58643;SDS011;44411;49.994;8.660;2023-03-14T16:35:03;3.90;;;2.22;;
58643;SDS011;44411;49.994;8.660;2023-03-14T16:37:29;2.55;;;1.63;;
58643;SDS011;44411;49.994;8.660;2023-03-14T16:39:54;5.15;;;1.70;;
58643;SDS011;44411;49.994;8.660;2023-03-14T16:42:20;3.80;;;1.92;;
58643;SDS011;44411;49.994;8.660;2023-03-14T16:44:46;4.05;;;1.48;;
58643;SDS011;44411;49.994;8.660;2023-03-14T16:47:11;2.92;;;1.40;;
58643;SDS011;44411;49.994;8.660;2023-03-14T16:49:37;4.07;;;2.13;;
58643;SDS011;44411;49.994;8.660;2023-03-14T16:52:02;3.17;;;1.20;;
58643;SDS011;44411;49.994;8.660;2023-03-14T16:54:28;3.17;;;1.42;;
58643;SDS011;44411;49.994;8.660;2023-03-14T16:56:53;2.05;;;1.30;;
58643;SDS011;44411;49.994;8.660;2023-03-14T16:59:19;3.72;;;1.60;;
58643;SDS011;44411;49.994;8.660;2023-03-14T17:01:44;2.28;;;1.38;;
58643;SDS011;44411;49.994;8.660;2023-03-14T17:04:10;3.70;;;1.70;;
58643;SDS011;44411;49.994;8.660;2023-03-14T17:06:36;3.10;;;1.55;;
58643;SDS011;44411;49.994;8.660;2023-03-14T17:09:03;2.38;;;1.30;;
58643;SDS011;44411;49.994;8.660;2023-03-14T17:11:30;3.15;;;1.40;;
58643;SDS011;44411;49.994;8.660;2023-03-14T17:13:59;1.20;;;0.80;;
58643;SDS011;44411;49.994;8.660;2023-03-14T17:16:26;2.60;;;1.00;;
58643;SDS011;44411;49.994;8.660;2023-03-14T17:18:52;3.10;;;1.30;;
58643;SDS011;44411;49.994;8.660;2023-03-14T17:21:18;2.63;;;1.17;;
58643;SDS011;44411;49.994;8.660;2023-03-14T17:23:43;4.03;;;1.27;;
58643;SDS011;44411;49.994;8.660;2023-03-14T17:26:08;2.60;;;1.40;;
58643;SDS011;44411;49.994;8.660;2023-03-14T17:28:36;1.63;;;1.00;;
58643;SDS011;44411;49.994;8.660;2023-03-14T17:33:36;0.68;;;0.60;;
58643;SDS011;44411;49.994;8.660;2023-03-14T17:36:02;1.38;;;0.90;;
58643;SDS011;44411;49.994;8.660;2023-03-14T17:38:28;1.88;;;1.00;;
58643;SDS011;44411;49.994;8.660;2023-03-14T17:40:54;2.53;;;1.25;;
58643;SDS011;44411;49.994;8.660;2023-03-14T17:43:20;3.40;;;1.50;;
58643;SDS011;44411;49.994;8.660;2023-03-14T17:45:45;6.45;;;2.67;;
58643;SDS011;44411;49.994;8.660;2023-03-14T17:48:11;2.05;;;1.10;;
58643;SDS011;44411;49.994;8.660;2023-03-14T17:50:36;2.97;;;1.50;;
58643;SDS011;44411;49.994;8.660;2023-03-14T17:53:02;1.00;;;0.80;;
58643;SDS011;44411;49.994;8.660;2023-03-14T17:55:27;2.15;;;0.90;;
58643;SDS011;44411;49.994;8.660;2023-03-14T17:57:53;2.50;;;1.17;;
58643;SDS011;44411;49.994;8.660;2023-03-14T18:00:18;3.47;;;1.40;;
58643;SDS011;44411;49.994;8.660;2023-03-14T18:02:44;2.63;;;1.30;;
58643;SDS011;44411;49.994;8.660;2023-03-14T18:05:10;5.53;;;2.00;;
58643;SDS011;44411;49.994;8.660;2023-03-14T18:07:36;2.85;;;1.35;;
58643;SDS011;44411;49.994;8.660;2023-03-14T18:10:03;3.63;;;1.50;;
58643;SDS011;44411;49.994;8.660;2023-03-14T18:12:30;1.80;;;1.10;;
58643;SDS011;44411;49.994;8.660;2023-03-14T18:14:56;2.15;;;1.10;;
58643;SDS011;44411;49.994;8.660;2023-03-14T18:17:21;2.63;;;1.30;;
58643;SDS011;44411;49.994;8.660;2023-03-14T18:19:47;2.85;;;1.30;;
58643;SDS011;44411;49.994;8.660;2023-03-14T18:22:12;2.80;;;1.73;;
58643;SDS011;44411;49.994;8.660;2023-03-14T18:24:39;5.10;;;1.90;;
58643;SDS011;44411;49.994;8.660;2023-03-14T18:27:05;4.13;;;2.17;;
58643;SDS011;44411;49.994;8.660;2023-03-14T18:29:30;4.60;;;2.38;;
58643;SDS011;44411;49.994;8.660;2023-03-14T18:31:56;2.40;;;1.60;;
58643;SDS011;44411;49.994;8.660;2023-03-14T18:34:23;5.45;;;1.67;;
58643;SDS011;44411;49.994;8.660;2023-03-14T18:36:49;4.78;;;2.15;;
58643;SDS011;44411;49.994;8.660;2023-03-14T18:39:14;2.90;;;1.80;;
58643;SDS011;44411;49.994;8.660;2023-03-14T18:41:40;4.85;;;2.20;;
58643;SDS011;44411;49.994;8.660;2023-03-14T18:44:05;2.92;;;1.70;;
58643;SDS011;44411;49.994;8.660;2023-03-14T18:46:31;5.35;;;2.00;;
58643;SDS011;44411;49.994;8.660;2023-03-14T18:48:56;4.93;;;1.88;;
58643;SDS011;44411;49.994;8.660;2023-03-14T18:51:27;7.65;;;2.30;;
58643;SDS011;44411;49.994;8.660;2023-03-14T18:53:55;4.70;;;2.58;;
58643;SDS011;44411;49.994;8.660;2023-03-14T18:56:24;11.23;;;4.27;;
58643;SDS011;44411;49.994;8.660;2023-03-14T18:58:51;9.32;;;3.53;;
58643;SDS011;44411;49.994;8.660;2023-03-14T19:01:17;8.00;;;3.53;;
58643;SDS011;44411;49.994;8.660;2023-03-14T19:03:43;8.52;;;3.03;;
58643;SDS011;44411;49.994;8.660;2023-03-14T19:06:11;7.00;;;3.22;;
58643;SDS011;44411;49.994;8.660;2023-03-14T19:08:37;6.60;;;2.80;;
58643;SDS011;44411;49.994;8.660;2023-03-14T19:11:03;6.93;;;3.25;;
58643;SDS011;44411;49.994;8.660;2023-03-14T19:13:31;7.03;;;3.53;;
58643;SDS011;44411;49.994;8.660;2023-03-14T19:15:58;13.38;;;4.55;;
58643;SDS011;44411;49.994;8.660;2023-03-14T19:18:25;13.77;;;4.18;;
58643;SDS011;44411;49.994;8.660;2023-03-14T19:20:54;10.25;;;3.42;;
58643;SDS011;44411;49.994;8.660;2023-03-14T19:23:21;10.52;;;4.47;;
58643;SDS011;44411;49.994;8.660;2023-03-14T19:25:49;7.32;;;4.10;;
58643;SDS011;44411;49.994;8.660;2023-03-14T19:28:15;14.45;;;4.50;;
58643;SDS011;44411;49.994;8.660;2023-03-14T19:30:41;9.75;;;4.15;;
58643;SDS011;44411;49.994;8.660;2023-03-14T19:33:10;10.52;;;5.10;;
58643;SDS011;44411;49.994;8.660;2023-03-14T19:35:37;7.03;;;4.30;;
58643;SDS011;44411;49.994;8.660;2023-03-14T19:38:03;9.88;;;5.15;;
58643;SDS011;44411;49.994;8.660;2023-03-14T19:40:29;15.45;;;6.55;;
58643;SDS011;44411;49.994;8.660;2023-03-14T19:42:55;15.35;;;7.30;;
58643;SDS011;44411;49.994;8.660;2023-03-14T19:45:20;14.02;;;6.60;;
58643;SDS011;44411;49.994;8.660;2023-03-14T19:47:47;12.68;;;7.25;;
58643;SDS011;44411;49.994;8.660;2023-03-14T19:50:12;12.73;;;6.60;;
58643;SDS011;44411;49.994;8.660;2023-03-14T19:52:38;17.55;;;7.15;;
58643;SDS011;44411;49.994;8.660;2023-03-14T19:55:07;12.45;;;7.55;;